Time;durP1;ratioP1;P1;durP2;ratioP2;P2;SDS_P1;SDS_P2;PMS_P1;PMS_P2;Temp;Humidity;BMP_temperature;BMP_pressure;BME280_temperature;BME280_humidity;BME280_pressure;Samples;Min_cycle;Max_cycle;Signal;HPM_P1;HPM_P2
2023/10/11 07:53:27;;;;;;;8.80;5.20;;;;;;;8.89;100.00;100616.60;103211;1289;600819;-71
2023/10/11 07:55:58;;;;;;;8.40;5.20;;;;;;;8.96;100.00;100610.58;106480;1263;59384;-73
2023/10/11 07:58:26;;;;;;;8.40;5.30;;;;;;;9.05;100.00;100606.80;105261;1264;59816;-73
2023/10/11 08:00:55;;;;;;;8.00;5.30;;;;;;;9.17;100.00;100605.61;106113;1264;70366;-71
2023/10/11 08:03:24;;;;;;;14.20;6.60;;;;;;;9.26;100.00;100604.98;106931;1263;71330;-71
2023/10/11 08:05:53;;;;;;;9.70;4.70;;;;;;;9.34;100.00;100605.78;106936;1264;71222;-74
2023/10/11 08:08:22;;;;;;;10.80;5.10;;;;;;;9.47;100.00;100605.97;105516;1263;59352;-72
2023/10/11 08:11:22;;;;;;;6.50;4.60;;;;;;;9.63;100.00;100602.25;102767;1289;600788;-69
2023/10/11 08:13:50;;;;;;;9.70;4.90;;;;;;;9.74;100.00;100599.66;105745;1264;59795;-73
2023/10/11 08:16:18;;;;;;;7.90;5.10;;;;;;;9.87;100.00;100593.33;106333;1264;60182;-71
2023/10/11 08:18:48;;;;;;;7.90;4.60;;;;;;;10.02;100.00;100593.46;106274;1264;69917;-74
2023/10/11 08:21:16;;;;;;;8.90;4.70;;;;;;;10.15;100.00;100585.90;104646;1264;1002909;-74
2023/10/11 08:23:44;;;;;;;9.20;4.80;;;;;;;10.29;100.00;100586.57;105550;1261;224684;-74
2023/10/11 08:26:16;;;;;;;7.30;3.90;;;;;;;10.40;100.00;100587.45;105423;1262;59457;-72
2023/10/11 08:28:48;;;;;;;5.40;4.20;;;;;;;10.48;100.00;100585.41;106317;1261;59978;-73
2023/10/11 08:31:29;;;;;;;8.10;4.30;;;;;;;10.56;100.00;100585.97;105912;1261;72276;-74
2023/10/11 08:33:57;;;;;;;9.00;4.20;;;;;;;10.67;100.00;100585.43;106701;1263;70889;-74
2023/10/11 08:36:29;;;;;;;6.90;4.50;;;;;;;10.75;100.00;100582.98;106257;1263;71590;-74
2023/10/11 08:38:59;;;;;;;8.50;4.60;;;;;;;10.86;100.00;100584.56;105869;1261;59605;-73
2023/10/11 08:41:30;;;;;;;6.20;4.20;;;;;;;10.91;100.00;100579.38;105889;1262;60558;-73
2023/10/11 08:43:59;;;;;;;8.80;4.40;;;;;;;10.98;100.00;100587.30;106660;1264;71183;-74
2023/10/11 08:54:11;;;;;;;6.20;3.90;;;;;;;11.31;100.00;100598.07;102880;1286;600375;-74
2023/10/11 08:56:54;;;;;;;6.70;3.60;;;;;;;11.34;100.00;100593.97;105268;1267;60101;-73
2023/10/11 08:59:25;;;;;;;4.70;3.70;;;;;;;11.37;100.00;100584.96;105138;1265;59244;-73
2023/10/11 09:02:04;;;;;;;7.70;4.90;;;;;;;11.46;100.00;100583.70;105641;1266;72935;-74
2023/10/11 09:04:35;;;;;;;10.40;5.30;;;;;;;11.62;100.00;100577.95;106088;1271;71922;-75
2023/10/11 09:07:03;;;;;;;8.30;4.90;;;;;;;11.71;100.00;100577.91;107038;1264;228128;-74
2023/10/11 09:09:39;;;;;;;9.60;5.30;;;;;;;11.75;100.00;100573.77;106224;1263;60144;-74
2023/10/11 09:12:23;;;;;;;5.30;4.00;;;;;;;11.78;100.00;100574.77;105284;1264;59233;-75
2023/10/11 09:15:03;;;;;;;5.20;3.70;;;;;;;11.70;100.00;100566.33;106397;1264;72091;-73
2023/10/11 09:17:38;;;;;;;6.50;4.10;;;;;;;11.68;100.00;100571.11;106165;1263;70719;-74
2023/10/11 09:20:15;;;;;;;16.10;5.80;;;;;;;11.61;100.00;100571.09;107437;1257;71818;-73
2023/10/11 09:22:47;;;;;;;20.50;9.10;;;;;;;11.60;100.00;100564.08;106664;1257;61036;-74
2023/10/11 09:25:33;;;;;;;10.80;5.40;;;;;;;11.68;100.00;100562.84;106547;1257;59732;-74
2023/10/11 09:28:04;;;;;;;6.20;3.60;;;;;;;11.78;100.00;100561.59;106908;1258;71837;-73
2023/10/11 09:30:31;;;;;;;5.20;3.50;;;;;;;11.84;100.00;100552.12;105714;1258;71462;-73
2023/10/11 09:33:15;;;;;;;4.30;3.10;;;;;;;11.91;100.00;100545.30;105636;1260;71396;-73
2023/10/11 09:35:50;;;;;;;4.60;3.40;;;;;;;11.96;100.00;100548.55;106207;1260;60105;-73
2023/10/11 09:38:19;;;;;;;14.30;2.90;;;;;;;12.04;100.00;100547.47;106097;1256;59969;-74
2023/10/11 09:40:47;;;;;;;6.90;3.40;;;;;;;12.12;97.89;100540.95;106026;1260;72358;-72
2023/10/11 09:43:16;;;;;;;7.40;4.20;;;;;;;12.18;100.00;100529.72;106015;1258;71406;-74
2023/10/11 09:45:53;;;;;;;5.80;3.10;;;;;;;12.32;99.87;100526.20;106097;1256;71899;-72
2023/10/11 09:48:22;;;;;;;4.50;3.20;;;;;;;12.41;88.50;100524.73;106189;1256;60704;-74
2023/10/11 09:50:51;;;;;;;3.80;3.00;;;;;;;12.36;86.62;100519.23;106724;1257;60300;-75
2023/10/11 09:53:20;;;;;;;4.40;3.20;;;;;;;12.33;90.36;100508.56;105999;1258;75637;-74
2023/10/11 09:55:50;;;;;;;9.20;3.80;;;;;;;12.39;89.53;100515.64;105745;1258;69209;-74
2023/10/11 09:58:35;;;;;;;2.80;2.60;;;;;;;12.46;88.73;100518.83;105703;1257;70446;-73
2023/10/11 10:01:11;;;;;;;6.30;2.80;;;;;;;12.53;80.05;100515.27;105633;1257;61095;-71
2023/10/11 10:03:45;;;;;;;3.20;2.80;;;;;;;12.53;77.09;100509.11;105681;1256;60694;-73
2023/10/11 10:06:21;;;;;;;3.00;2.20;;;;;;;12.59;77.06;100502.26;105681;1256;72518;-73
2023/10/11 10:09:24;;;;;;;2.70;2.10;;;;;;;12.69;73.46;100498.84;106033;1256;69956;-74
2023/10/11 10:12:09;;;;;;;10.80;4.10;;;;;;;12.80;73.21;100494.98;105869;1260;71594;-74
2023/10/11 10:14:41;;;;;;;12.70;7.00;;;;;;;12.88;64.65;100494.40;105713;1257;59667;-74
2023/10/11 10:24:56;;;;;;;4.10;2.10;;;;;;;13.11;58.84;100481.07;102627;1292;617435;-73
2023/10/11 10:27:23;;;;;;;4.00;2.30;;;;;;;13.10;55.69;100477.77;105841;1264;59386;-74
2023/10/11 10:29:59;;;;;;;5.10;2.40;;;;;;;13.07;56.46;100469.40;105598;1268;60531;-73
2023/10/11 10:32:27;;;;;;;6.30;2.10;;;;;;;13.16;56.49;100469.11;105200;1270;71903;-74
2023/10/11 10:35:19;;;;;;;3.50;2.60;;;;;;;13.24;55.12;100462.19;105854;1258;71309;-73
2023/10/11 10:37:46;;;;;;;5.60;2.70;;;;;;;13.36;57.36;100455.14;105599;1260;212784;-74
2023/10/11 10:40:26;;;;;;;6.20;2.30;;;;;;;13.50;53.04;100456.66;105813;1258;59688;-74
2023/10/11 10:43:06;;;;;;;3.80;2.70;;;;;;;13.52;49.70;100458.91;106953;1256;59260;-74
2023/10/11 10:45:36;;;;;;;5.20;3.10;;;;;;;13.40;49.49;100446.76;105892;1259;71473;-74
2023/10/11 10:48:16;;;;;;;6.20;3.20;;;;;;;13.31;49.87;100442.93;105846;1257;71044;-75
2023/10/11 10:50:52;;;;;;;2.90;2.50;;;;;;;13.22;49.01;100440.04;106068;1259;72701;-73
2023/10/11 10:53:24;;;;;;;9.50;2.60;;;;;;;13.06;49.89;100440.88;106302;1256;60499;-74
2023/10/11 10:55:52;;;;;;;6.30;2.50;;;;;;;12.96;50.15;100433.06;107542;1255;60254;-73
2023/10/11 10:58:19;;;;;;;4.50;2.70;;;;;;;12.92;50.89;100427.92;105665;1261;73778;-72
2023/10/11 11:00:53;;;;;;;2.60;2.20;;;;;;;12.96;51.86;100420.76;105888;1257;71030;-75
2023/10/11 11:03:21;;;;;;;5.50;2.20;;;;;;;13.07;52.32;100410.74;105802;1256;72587;-74
2023/10/11 11:05:56;;;;;;;4.20;2.30;;;;;;;13.22;52.21;100410.10;107553;1256;59755;-75
2023/10/11 11:08:29;;;;;;;5.10;2.30;;;;;;;13.40;52.40;100409.75;105808;1257;59766;-74
2023/10/11 11:10:59;;;;;;;5.90;2.60;;;;;;;13.55;51.02;100410.13;105837;1256;71644;-73
2023/10/11 11:13:29;;;;;;;3.70;2.20;;;;;;;13.57;49.37;100409.71;106120;1257;71394;-74
2023/10/11 11:15:56;;;;;;;4.00;2.50;;;;;;;13.51;48.84;100409.04;106632;1257;73123;-73
2023/10/11 11:18:32;;;;;;;4.80;2.30;;;;;;;13.36;47.71;100410.05;105936;1259;60895;-72
2023/10/11 11:21:20;;;;;;;5.20;2.70;;;;;;;13.12;48.18;100398.44;105635;1257;60330;-75
2023/10/11 11:23:49;;;;;;;3.30;2.60;;;;;;;13.11;49.41;100399.34;105845;1255;72865;-73
2023/10/11 11:26:16;;;;;;;5.30;2.60;;;;;;;13.24;49.21;100401.38;106030;1256;71095;-74
2023/10/11 11:29:09;;;;;;;4.80;2.80;;;;;;;13.44;47.06;100399.75;106661;1256;73299;-75
2023/10/11 11:31:59;;;;;;;8.10;2.30;;;;;;;13.55;46.21;100403.27;106643;1256;60601;-73
2023/10/11 11:34:37;;;;;;;12.80;2.70;;;;;;;13.59;45.96;100396.45;105839;1259;59490;-76
2023/10/11 11:37:06;;;;;;;2.80;2.50;;;;;;;13.70;46.56;100404.36;106058;1256;72818;-74
2023/10/11 11:42:24;;;;;;;5.10;2.40;;;;;;;14.09;44.38;100406.21;106211;1259;72447;-74
2023/10/11 11:44:55;;;;;;;5.80;2.40;;;;;;;14.29;44.31;100407.81;105702;1260;61006;-72
2023/10/11 11:47:22;;;;;;;4.60;2.70;;;;;;;14.52;43.65;100406.80;105846;1259;60554;-74
2023/10/11 11:49:58;;;;;;;10.90;2.20;;;;;;;14.69;41.79;100396.85;105801;1256;72040;-75
2023/10/11 11:52:28;;;;;;;4.70;2.50;;;;;;;14.77;41.43;100389.99;106678;1256;71471;-75
2023/10/11 11:54:55;;;;;;;5.50;2.50;;;;;;;14.82;40.48;100400.56;105942;1259;72874;-74
2023/10/11 11:57:29;;;;;;;6.00;1.90;;;;;;;14.82;40.26;100390.02;105804;1256;60110;-74
2023/10/11 11:59:56;;;;;;;7.90;2.40;;;;;;;14.72;39.76;100388.27;105461;1256;1003073;-74
2023/10/11 12:02:26;;;;;;;6.20;2.40;;;;;;;14.57;40.83;100386.33;106651;1255;72907;-74
2023/10/11 12:04:52;;;;;;;5.20;2.60;;;;;;;14.49;40.55;100385.17;106172;1257;71895;-74
2023/10/11 12:07:19;;;;;;;3.00;2.30;;;;;;;14.54;41.41;100378.66;105814;1256;72490;-74
2023/10/11 12:09:46;;;;;;;2.00;1.80;;;;;;;14.69;40.99;100384.65;107411;1255;60362;-74
2023/10/11 12:12:30;;;;;;;4.00;2.30;;;;;;;14.76;39.99;100378.92;106094;1258;59831;-75
2023/10/11 12:14:59;;;;;;;5.40;2.30;;;;;;;14.80;39.95;100377.52;105912;1259;73044;-73
2023/10/11 12:17:26;;;;;;;11.40;3.40;;;;;;;14.86;39.83;100378.02;106685;1253;70923;-74
2023/10/11 12:19:53;;;;;;;4.20;2.00;;;;;;;14.81;39.33;100377.15;106155;1254;71609;-76
2023/10/11 12:22:24;;;;;;;4.60;2.20;;;;;;;14.75;40.14;100373.86;107376;1250;60541;-73
2023/10/11 12:24:51;;;;;;;8.80;2.80;;;;;;;14.84;40.28;100377.04;107014;1250;59625;-73
2023/10/11 12:27:19;;;;;;;2.60;2.40;;;;;;;14.88;39.02;100365.38;106297;1251;73043;-74
2023/10/11 12:29:48;;;;;;;14.60;2.30;;;;;;;14.79;39.67;100363.45;106593;1250;71837;-72
2023/10/11 12:32:35;;;;;;;5.60;2.00;;;;;;;14.79;39.18;100367.68;106257;1250;73289;-73
2023/10/11 12:35:06;;;;;;;5.80;2.60;;;;;;;14.74;39.04;100362.95;106762;1250;60436;-74
2023/10/11 12:37:35;;;;;;;7.40;2.50;;;;;;;14.76;39.71;100355.61;106240;1250;60785;-74
2023/10/11 12:40:11;;;;;;;9.70;2.70;;;;;;;14.81;38.92;100367.06;107093;1250;73108;-72
2023/10/11 12:42:39;;;;;;;5.70;2.80;;;;;;;14.75;38.83;100358.46;107035;1250;71977;-74
2023/10/11 12:45:07;;;;;;;5.30;3.20;;;;;;;14.75;39.11;100354.05;106619;1250;70251;-74
2023/10/11 12:47:35;;;;;;;12.40;2.50;;;;;;;14.79;39.02;100343.31;106596;1251;61529;-73
2023/10/11 12:50:03;;;;;;;7.40;2.50;;;;;;;14.86;38.61;100342.86;107456;1250;60316;-73
2023/10/11 12:52:30;;;;;;;6.50;2.60;;;;;;;14.93;38.63;100338.90;106602;1251;73122;-74
2023/10/11 12:54:57;;;;;;;4.60;3.10;;;;;;;14.92;38.31;100333.11;106198;1250;70607;-73
2023/10/11 12:57:27;;;;;;;5.10;2.80;;;;;;;14.84;38.66;100330.55;106154;1250;74045;-74
2023/10/11 12:59:54;;;;;;;4.10;3.40;;;;;;;14.80;38.45;100327.90;106186;1254;60426;-74
2023/10/11 13:02:21;;;;;;;7.00;4.00;;;;;;;14.73;38.74;100320.95;106998;1251;60234;-74
2023/10/11 13:04:52;;;;;;;11.20;4.40;;;;;;;14.67;39.15;100314.13;106162;1251;71981;-73
2023/10/11 13:07:19;;;;;;;6.60;3.50;;;;;;;14.68;39.16;100310.20;106985;1250;71706;-73
2023/10/11 13:09:45;;;;;;;10.10;3.80;;;;;;;14.73;39.72;100307.36;106583;1250;71551;-75
2023/10/11 13:12:17;;;;;;;14.90;4.20;;;;;;;14.92;39.23;100305.34;106613;1254;60111;-72
2023/10/11 13:14:44;;;;;;;8.30;3.30;;;;;;;15.11;38.92;100303.90;106423;1250;60570;-75
2023/10/11 13:17:15;;;;;;;5.30;3.10;;;;;;;15.31;38.80;100301.80;107198;1250;71294;-73
2023/10/11 13:19:45;;;;;;;7.60;3.30;;;;;;;15.61;38.32;100291.36;106132;1250;71914;-74
2023/10/11 13:22:12;;;;;;;11.00;2.70;;;;;;;16.33;38.42;100276.67;106091;1250;72489;-75
2023/10/11 13:24:39;;;;;;;9.60;2.90;;;;;;;17.74;37.20;100265.73;107684;1250;61104;-72
2023/10/11 13:27:08;;;;;;;6.90;2.70;;;;;;;19.35;34.82;100243.68;106385;1250;59894;-74
2023/10/11 13:29:36;;;;;;;10.40;2.50;;;;;;;20.81;32.94;100237.48;106144;1250;71582;-74
2023/10/11 13:32:04;;;;;;;7.10;2.70;;;;;;;22.06;29.48;100227.90;106390;1250;70082;-73
2023/10/11 13:34:33;;;;;;;9.60;2.60;;;;;;;22.86;28.94;100219.81;106377;1250;1002588;-73
2023/10/11 13:37:03;;;;;;;4.60;2.60;;;;;;;23.76;27.71;100214.27;106141;1254;61016;-74
2023/10/11 13:39:39;;;;;;;6.20;2.40;;;;;;;24.53;27.37;100206.84;106250;1250;60462;-74
2023/10/11 13:42:14;;;;;;;7.80;2.40;;;;;;;25.32;26.16;100203.77;107486;1250;73313;-73
2023/10/11 13:44:43;;;;;;;2.80;1.90;;;;;;;25.55;24.23;100207.83;106386;1251;71519;-74
2023/10/11 13:47:10;;;;;;;8.70;2.50;;;;;;;25.13;23.74;100208.59;106269;1251;72611;-74
2023/10/11 13:49:39;;;;;;;10.70;3.10;;;;;;;24.41;24.03;100207.13;106174;1250;59937;-74
2023/10/11 13:52:07;;;;;;;8.00;2.30;;;;;;;23.69;24.60;100209.59;106495;1250;61238;-73
2023/10/11 13:54:42;;;;;;;4.60;2.50;;;;;;;23.21;25.41;100212.23;106132;1250;72826;-74
2023/10/11 13:57:17;;;;;;;5.80;2.20;;;;;;;23.06;25.63;100222.47;107187;1250;70841;-74
2023/10/11 13:59:46;;;;;;;4.30;2.40;;;;;;;22.63;26.24;100223.16;106157;1250;73062;-73
2023/10/11 14:07:37;;;;;;;3.20;1.70;;;;;;;21.09;27.53;100244.92;106962;1252;73440;-74
2023/10/11 14:10:16;;;;;;;9.10;4.30;;;;;;;20.45;28.00;100241.60;106595;1250;71785;-74
2023/10/11 14:12:43;;;;;;;8.00;2.80;;;;;;;19.53;28.81;100237.08;106471;1251;72610;-73
2023/10/11 14:15:32;;;;;;;9.30;3.50;;;;;;;18.71;29.88;100236.70;106149;1250;59677;-73
2023/10/11 14:18:02;;;;;;;7.70;3.10;;;;;;;17.89;30.99;100233.91;106979;1251;59492;-73
2023/10/11 14:20:32;;;;;;;4.60;2.70;;;;;;;17.27;32.00;100235.84;106616;1251;73314;-73
2023/10/11 14:23:04;;;;;;;3.90;2.30;;;;;;;16.95;32.90;100240.33;106448;1250;71892;-72
2023/10/11 14:25:32;;;;;;;12.30;2.50;;;;;;;16.80;33.47;100233.77;106919;1250;71307;-73
2023/10/11 14:27:58;;;;;;;4.40;3.10;;;;;;;16.60;33.77;100238.05;106550;1254;61159;-75
2023/10/11 14:30:25;;;;;;;7.20;3.50;;;;;;;16.25;34.05;100233.68;105774;1254;1003393;-74
2023/10/11 14:32:52;;;;;;;6.40;3.20;;;;;;;15.73;34.89;100240.46;106171;1250;59741;-74
2023/10/11 14:35:21;;;;;;;5.00;2.40;;;;;;;15.28;35.78;100246.80;106131;1250;72541;-73
2023/10/11 14:37:48;;;;;;;5.80;2.30;;;;;;;14.96;36.54;100243.90;107056;1254;73081;-73
2023/10/11 14:40:15;;;;;;;9.70;2.60;;;;;;;14.77;37.31;100238.30;106629;1250;60430;-73
2023/10/11 14:42:43;;;;;;;5.00;2.60;;;;;;;14.58;37.83;100238.16;106479;1254;61575;-73
2023/10/11 14:45:14;;;;;;;6.20;2.70;;;;;;;14.31;38.45;100236.36;106979;1252;73825;-74
2023/10/11 14:47:45;;;;;;;10.00;2.70;;;;;;;14.06;39.24;100232.89;106197;1254;71196;-73
2023/10/11 14:50:13;;;;;;;5.60;2.80;;;;;;;13.87;39.90;100242.43;106383;1250;71992;-72
2023/10/11 14:52:40;;;;;;;8.70;2.40;;;;;;;13.66;40.61;100236.30;107152;1251;60426;-73
2023/10/11 14:55:08;;;;;;;8.40;2.60;;;;;;;13.47;41.26;100242.80;106334;1250;60482;-73
2023/10/11 14:57:35;;;;;;;4.50;2.80;;;;;;;13.26;41.98;100246.12;106192;1254;73037;-72
2023/10/11 15:00:06;;;;;;;5.50;2.60;;;;;;;13.09;42.71;100239.13;107037;1250;71278;-73
2023/10/11 15:02:33;;;;;;;9.20;2.70;;;;;;;12.96;43.67;100240.95;107329;1254;71472;-73
2023/10/11 15:05:00;;;;;;;5.40;2.70;;;;;;;12.86;44.20;100237.59;107212;1250;60488;-74
2023/10/11 15:07:26;;;;;;;6.50;2.80;;;;;;;12.77;44.93;100239.45;106661;1254;60921;-73
2023/10/11 15:09:54;;;;;;;4.70;2.60;;;;;;;12.69;45.83;100239.54;106156;1250;73912;-74
2023/10/11 15:12:21;;;;;;;10.10;3.00;;;;;;;12.62;46.43;100242.03;106124;1250;70995;-72
2023/10/11 15:14:48;;;;;;;90.70;43.70;;;;;;;12.54;47.02;100241.23;106274;1250;73239;-74
2023/10/11 15:17:18;;;;;;;46.60;21.10;;;;;;;12.44;47.65;100239.08;106156;1253;60321;-72
2023/10/11 15:19:45;;;;;;;43.50;22.20;;;;;;;12.35;48.23;100233.91;106191;1254;60374;-72
2023/10/11 15:22:13;;;;;;;21.00;10.90;;;;;;;12.25;49.03;100234.20;106736;1254;74381;-73
2023/10/11 15:24:40;;;;;;;11.80;6.20;;;;;;;12.15;49.76;100230.79;107000;1254;70894;-73
2023/10/11 15:27:07;;;;;;;15.20;4.40;;;;;;;12.07;50.41;100228.02;106182;1254;72494;-74
2023/10/11 15:29:34;;;;;;;17.60;5.20;;;;;;;12.01;50.88;100225.74;106802;1250;60831;-73
2023/10/11 15:32:03;;;;;;;12.60;4.90;;;;;;;11.96;51.75;100226.98;105836;1251;1003084;-73
2023/10/11 15:34:30;;;;;;;7.00;4.00;;;;;;;11.88;52.31;100228.21;106169;1254;74027;-74
2023/10/11 15:36:57;;;;;;;10.40;3.90;;;;;;;11.82;52.91;100226.98;106168;1250;71173;-72
2023/10/11 15:39:27;;;;;;;10.00;3.70;;;;;;;11.78;53.30;100227.96;106589;1250;72878;-72
2023/10/11 15:41:55;;;;;;;11.10;6.10;;;;;;;11.74;54.02;100224.56;107017;1254;61048;-73
2023/10/11 15:44:24;;;;;;;12.00;5.60;;;;;;;11.69;54.29;100223.83;107005;1250;60448;-73
2023/10/11 15:46:51;;;;;;;8.10;3.60;;;;;;;11.61;54.18;100218.25;106219;1250;73724;-74
2023/10/11 15:49:20;;;;;;;7.70;3.50;;;;;;;11.56;54.67;100217.52;106170;1250;71677;-72
2023/10/11 15:51:50;;;;;;;8.50;4.50;;;;;;;11.51;54.83;100214.65;107001;1251;72659;-73
2023/10/11 15:54:17;;;;;;;10.60;3.60;;;;;;;11.47;54.76;100215.98;106212;1255;60511;-71
2023/10/11 15:56:44;;;;;;;14.90;3.20;;;;;;;11.43;55.51;100215.58;106267;1252;60496;-73
2023/10/11 15:59:11;;;;;;;10.00;3.80;;;;;;;11.39;56.06;100210.92;106153;1250;73546;-73
2023/10/11 16:01:39;;;;;;;12.10;4.50;;;;;;;11.32;57.05;100205.48;106981;1253;1002244;-74
2023/10/11 16:04:06;;;;;;;8.80;4.90;;;;;;;11.27;57.30;100201.94;107126;1250;72687;-73
2023/10/11 16:06:35;;;;;;;12.90;4.70;;;;;;;11.24;58.13;100209.04;107934;1252;62696;-74
2023/10/11 16:09:09;;;;;;;9.70;4.30;;;;;;;11.21;58.95;100207.36;107111;1250;60545;-73
2023/10/11 16:11:35;;;;;;;7.30;3.70;;;;;;;11.19;60.01;100210.77;106168;1250;72632;-74
2023/10/11 16:14:02;;;;;;;13.80;5.30;;;;;;;11.17;61.15;100211.34;106510;1253;69964;-73
2023/10/11 16:16:29;;;;;;;10.40;4.80;;;;;;;11.14;61.42;100209.28;107104;1251;71492;-73
2023/10/11 16:18:57;;;;;;;5.70;3.80;;;;;;;11.10;61.99;100206.58;106177;1250;60972;-74
2023/10/11 16:21:24;;;;;;;13.60;4.10;;;;;;;11.05;62.56;100200.73;107023;1253;59881;-74
2023/10/11 16:23:51;;;;;;;8.60;4.60;;;;;;;11.00;63.47;100206.50;106671;1251;75339;-73
2023/10/11 16:26:19;;;;;;;12.00;4.20;;;;;;;10.94;64.44;100203.66;106590;1250;71211;-73
2023/10/11 16:28:46;;;;;;;6.90;4.00;;;;;;;10.91;65.64;100199.19;107084;1254;72804;-73
2023/10/11 16:31:16;;;;;;;6.00;3.70;;;;;;;10.88;66.33;100202.94;106598;1254;60457;-72
2023/10/11 16:33:43;;;;;;;14.00;3.80;;;;;;;10.85;67.06;100196.16;105781;1255;1002917;-72
2023/10/11 16:36:10;;;;;;;6.10;3.60;;;;;;;10.83;67.26;100195.69;106969;1252;74316;-74
2023/10/11 16:38:37;;;;;;;8.30;4.60;;;;;;;10.81;68.25;100193.80;106143;1254;70297;-73
2023/10/11 16:41:04;;;;;;;9.50;5.70;;;;;;;10.80;69.38;100196.47;106986;1250;71703;-73
2023/10/11 16:43:32;;;;;;;18.90;6.70;;;;;;;10.76;70.07;100191.80;106210;1250;60623;-73
2023/10/11 16:45:59;;;;;;;11.30;5.20;;;;;;;10.73;71.24;100188.20;107903;1250;60536;-73
2023/10/11 16:48:28;;;;;;;7.10;4.30;;;;;;;10.71;71.95;100188.08;107500;1250;74217;-73
2023/10/11 16:50:58;;;;;;;16.90;4.00;;;;;;;10.68;71.66;100184.29;106635;1250;71186;-73
2023/10/11 16:53:32;;;;;;;5.30;3.60;;;;;;;10.65;72.55;100181.56;106678;1251;72593;-73
2023/10/11 16:56:00;;;;;;;6.90;3.80;;;;;;;10.63;72.94;100180.05;106480;1251;60630;-73
2023/10/11 16:58:32;;;;;;;4.70;3.60;;;;;;;10.59;73.49;100182.23;106355;1250;60358;-73
2023/10/11 17:01:00;;;;;;;9.40;3.80;;;;;;;10.56;73.94;100177.92;106208;1254;74140;-73
2023/10/11 17:03:30;;;;;;;16.50;4.10;;;;;;;10.52;75.09;100173.11;106971;1250;71367;-73
2023/10/11 17:05:59;;;;;;;16.00;3.60;;;;;;;10.47;75.52;100170.41;106181;1250;71577;-73
2023/10/11 17:08:27;;;;;;;7.90;4.00;;;;;;;10.45;76.10;100169.08;106300;1250;60805;-72
2023/10/11 17:10:59;;;;;;;10.80;4.30;;;;;;;10.40;76.88;100165.84;106179;1254;60472;-72
2023/10/11 17:13:27;;;;;;;7.40;4.20;;;;;;;10.36;77.90;100167.31;106243;1250;72837;-74
2023/10/11 17:15:54;;;;;;;12.30;4.30;;;;;;;10.32;79.06;100164.08;107395;1250;70185;-73
2023/10/11 17:18:22;;;;;;;7.90;3.90;;;;;;;10.27;79.76;100161.55;106130;1254;72512;-74
2023/10/11 17:20:49;;;;;;;12.60;4.10;;;;;;;10.23;80.75;100159.71;106187;1250;60546;-74
2023/10/11 17:23:15;;;;;;;7.10;3.80;;;;;;;10.19;81.31;100153.30;106179;1254;60441;-74
2023/10/11 17:25:42;;;;;;;8.80;3.90;;;;;;;10.16;82.07;100153.04;106174;1254;73793;-75
2023/10/11 17:28:09;;;;;;;13.20;4.00;;;;;;;10.13;82.51;100141.36;107703;1250;71358;-73
2023/10/11 17:30:36;;;;;;;6.90;3.60;;;;;;;10.10;83.06;100136.50;106624;1250;72637;-73
2023/10/11 17:33:04;;;;;;;8.50;3.90;;;;;;;10.09;82.89;100122.70;105398;1250;1003568;-76
2023/10/11 17:35:35;;;;;;;7.80;3.70;;;;;;;10.09;83.16;100128.14;106000;1257;61147;-72
2023/10/11 17:38:03;;;;;;;9.30;3.70;;;;;;;10.08;83.27;100131.83;106300;1254;73745;-72
2023/10/11 17:40:30;;;;;;;6.30;3.50;;;;;;;10.08;84.48;100133.58;106236;1250;71279;-73
2023/10/11 17:43:00;;;;;;;8.00;3.30;;;;;;;10.08;85.37;100133.40;106616;1250;72828;-73
2023/10/11 17:45:33;;;;;;;8.70;3.90;;;;;;;10.07;85.78;100129.05;106212;1250;60472;-75
2023/10/11 17:48:02;;;;;;;7.10;3.70;;;;;;;10.07;85.05;100129.92;106607;1250;60579;-72
2023/10/11 17:50:29;;;;;;;9.50;3.40;;;;;;;10.07;85.46;100133.25;107042;1250;72664;-73
2023/10/11 17:52:56;;;;;;;8.30;4.30;;;;;;;10.07;85.00;100119.77;106593;1250;70238;-74
2023/10/11 17:55:26;;;;;;;6.50;3.50;;;;;;;10.08;86.71;100107.13;106543;1250;71648;-73
2023/10/11 17:57:53;;;;;;;8.00;3.30;;;;;;;10.08;86.89;100102.21;106162;1252;61152;-72
2023/10/11 18:00:22;;;;;;;10.00;4.00;;;;;;;10.09;86.76;100098.17;106604;1250;60448;-73
2023/10/11 18:02:50;;;;;;;9.30;3.60;;;;;;;10.09;86.97;100090.46;106577;1250;74291;-73
2023/10/11 18:05:17;;;;;;;8.90;4.10;;;;;;;10.07;87.66;100086.81;107418;1254;71452;-73
2023/10/11 18:07:49;;;;;;;10.10;4.50;;;;;;;10.06;88.45;100087.19;106571;1250;74270;-74
2023/10/11 18:10:17;;;;;;;9.40;4.10;;;;;;;10.05;89.27;100084.05;106176;1250;60450;-73
2023/10/11 18:12:47;;;;;;;9.80;4.10;;;;;;;10.04;89.76;100085.98;106333;1256;59331;-73
2023/10/11 18:15:16;;;;;;;7.10;4.60;;;;;;;10.04;90.52;100085.98;106356;1250;74140;-73
2023/10/11 18:17:44;;;;;;;9.90;5.10;;;;;;;10.05;90.76;100082.12;107185;1250;71391;-72
2023/10/11 18:20:15;;;;;;;17.10;4.40;;;;;;;10.07;90.45;100084.17;106361;1251;71648;-73
2023/10/11 18:22:43;;;;;;;6.40;3.80;;;;;;;10.10;90.23;100077.63;106195;1250;60472;-74
2023/10/11 18:25:13;;;;;;;9.20;4.10;;;;;;;10.12;90.36;100074.42;106265;1251;60553;-73
2023/10/11 18:27:41;;;;;;;10.20;5.10;;;;;;;10.12;90.30;100072.48;106508;1250;74283;-72
2023/10/11 18:30:11;;;;;;;26.80;5.50;;;;;;;10.12;91.28;100075.13;107344;1250;71977;-72
2023/10/11 18:32:41;;;;;;;8.20;4.10;;;;;;;10.09;91.53;100072.58;107039;1254;72912;-73
2023/10/11 18:35:08;;;;;;;12.30;5.60;;;;;;;10.08;92.45;100076.63;106672;1250;60368;-73
2023/10/11 18:37:35;;;;;;;8.30;4.70;;;;;;;10.07;92.53;100085.05;106668;1250;60556;-73
2023/10/11 18:40:07;;;;;;;11.00;5.20;;;;;;;10.05;93.59;100082.98;106196;1255;73933;-73
2023/10/11 18:42:39;;;;;;;9.30;4.80;;;;;;;10.04;94.83;100084.94;106693;1256;71099;-73
2023/10/11 18:45:11;;;;;;;8.00;5.10;;;;;;;10.01;95.10;100083.24;107043;1250;72806;-73
2023/10/11 18:47:41;;;;;;;15.70;5.00;;;;;;;9.99;95.43;100092.05;104745;1254;1003659;-73
2023/10/11 18:50:10;;;;;;;10.40;4.50;;;;;;;9.98;95.75;100088.59;106736;1255;60696;-74
2023/10/11 18:52:37;;;;;;;9.10;4.90;;;;;;;9.97;96.86;100085.28;106351;1256;73056;-73
2023/10/11 18:55:04;;;;;;;14.30;5.10;;;;;;;9.96;97.26;100074.80;106262;1255;70267;-72
2023/10/11 18:57:32;;;;;;;10.90;3.70;;;;;;;9.94;98.23;100072.73;106221;1250;72696;-72
2023/10/11 19:00:02;;;;;;;13.30;4.80;;;;;;;9.93;98.88;100066.45;107015;1250;60431;-72
2023/10/11 19:02:33;;;;;;;13.00;4.40;;;;;;;9.91;97.80;100077.20;106189;1250;60467;-72
2023/10/11 19:05:05;;;;;;;9.20;3.40;;;;;;;9.90;98.48;100066.52;106050;1256;74410;-73
2023/10/11 19:07:35;;;;;;;9.90;4.30;;;;;;;9.90;98.06;100056.00;106182;1250;71087;-72
2023/10/11 19:10:06;;;;;;;13.80;4.50;;;;;;;9.88;98.72;100052.88;107470;1254;72552;-72
2023/10/11 19:12:39;;;;;;;7.80;4.10;;;;;;;9.86;99.69;100055.22;106138;1250;60456;-73
2023/10/11 19:15:06;;;;;;;7.70;4.60;;;;;;;9.83;99.96;100049.50;107008;1250;60486;-74
2023/10/11 19:17:33;;;;;;;8.00;4.00;;;;;;;9.81;100.00;100048.31;106825;1250;73968;-73
2023/10/11 19:20:01;;;;;;;12.80;4.40;;;;;;;9.80;100.00;100045.20;106228;1250;71192;-72
2023/10/11 19:22:33;;;;;;;9.60;4.70;;;;;;;9.78;100.00;100043.13;106444;1253;71496;-73
2023/10/11 19:24:59;;;;;;;16.50;4.90;;;;;;;9.77;100.00;100039.33;107779;1250;60569;-73
2023/10/11 19:27:26;;;;;;;10.20;4.40;;;;;;;9.75;100.00;100040.74;106182;1254;60352;-74
2023/10/11 19:29:53;;;;;;;10.00;4.50;;;;;;;9.74;100.00;100044.13;106499;1254;73791;-73
2023/10/11 19:32:20;;;;;;;9.20;4.40;;;;;;;9.70;100.00;100045.77;107549;1250;69851;-74
2023/10/11 19:34:48;;;;;;;9.00;4.00;;;;;;;9.66;100.00;100041.80;106160;1250;72977;-73
2023/10/11 19:37:17;;;;;;;8.80;4.40;;;;;;;9.62;100.00;100041.57;107706;1250;60489;-74
2023/10/11 19:39:48;;;;;;;12.40;4.90;;;;;;;9.59;100.00;100039.88;105411;1250;1002782;-73
2023/10/11 19:42:15;;;;;;;5.00;4.30;;;;;;;9.57;100.00;100041.15;106394;1254;73766;-73
2023/10/11 19:44:42;;;;;;;9.10;4.60;;;;;;;9.55;100.00;100041.02;106291;1250;71155;-74